Pear Ridge, Texas
Current Conditions -  °F | °C
As of 1:53 AM on Saturday 20 Dec 2014 (Local Time) from KBPT Reporting Station
Overcast Overcast  
Wind Chill: 50°   Ceiling: 500
Heat Index: 50°   Visibility: 10mi
Dew Point: 49°   Wind: 12mph
Humidity: 96%   Direction: 20°NNE
Pressure: 30.11"   Gusts: NA
Location:  29.7569°N, 94.1898°W
Report Text: KBPT 200753Z AUTO 02010KT 10SM OVC005 10/09 A3011 RMK AO2 SLP195 T01000094
Loading
Personal Weather Stations






























Interactive Weather Map New forecast layout! Learn more

10-Day Weather Forecast

Advertisements
Track Severe Weather on mobile